createdAt,value
2018-08-19T00:02:27.452Z,44.30
2018-08-19T00:04:55.704Z,44.30
2018-08-19T00:07:23.958Z,44.30
2018-08-19T00:09:52.158Z,45.10
2018-08-19T00:12:21.194Z,45.20
2018-08-19T00:14:49.440Z,45.20
2018-08-19T00:17:18.414Z,48.90
2018-08-19T00:19:46.643Z,49.10
2018-08-19T00:22:14.867Z,45.60
2018-08-19T00:24:43.854Z,50.50
2018-08-19T00:27:12.069Z,49.90
2018-08-19T00:29:40.336Z,45.50
2018-08-19T00:32:08.539Z,45.70
2018-08-19T00:34:36.779Z,45.50
2018-08-19T00:37:05.797Z,45.40
2018-08-19T00:39:34.053Z,45.40
2018-08-19T00:42:02.259Z,45.90
2018-08-19T00:44:30.509Z,46.10
2018-08-19T00:46:59.485Z,45.50
2018-08-19T00:49:28.512Z,45.50
2018-08-19T00:51:56.735Z,45.50
2018-08-19T00:54:24.945Z,45.30
2018-08-19T00:56:53.927Z,46.60
2018-08-19T00:59:22.899Z,46.60
2018-08-19T01:01:52.647Z,46.50
2018-08-19T01:04:20.838Z,46.50
2018-08-19T01:06:49.056Z,45.10
2018-08-19T01:09:17.311Z,46.80
2018-08-19T01:11:45.570Z,47.20
2018-08-19T01:14:13.776Z,46.10
2018-08-19T01:16:42.070Z,46.10
2018-08-19T01:19:10.323Z,46.20
2018-08-19T01:21:38.518Z,46.00
2018-08-19T01:24:06.785Z,46.80
2018-08-19T01:26:35.048Z,46.60
2018-08-19T01:29:03.258Z,45.80
2018-08-19T01:31:31.465Z,46.10
2018-08-19T01:34:00.449Z,47.70
2018-08-19T01:36:29.415Z,46.70
2018-08-19T01:38:57.651Z,46.70
2018-08-19T01:41:25.855Z,46.20
2018-08-19T01:43:54.142Z,45.90
2018-08-19T01:46:22.375Z,47.00
2018-08-19T01:48:50.630Z,47.00
2018-08-19T01:51:19.640Z,45.90
2018-08-19T01:53:47.855Z,45.90
2018-08-19T01:56:16.096Z,46.60
2018-08-19T01:58:44.321Z,46.30
2018-08-19T02:01:12.575Z,46.70
2018-08-19T02:03:40.830Z,46.40
2018-08-19T02:06:09.044Z,46.70
2018-08-19T02:08:37.252Z,46.20
2018-08-19T02:11:06.261Z,47.50
2018-08-19T02:13:35.209Z,46.70
2018-08-19T02:16:03.445Z,46.40
2018-08-19T02:18:31.710Z,47.60
2018-08-19T02:21:00.687Z,46.50
2018-08-19T02:23:29.663Z,46.80
2018-08-19T02:25:57.887Z,46.80
2018-08-19T02:28:26.143Z,46.80
2018-08-19T02:30:55.127Z,48.40
2018-08-19T02:33:24.150Z,56.30
2018-08-19T02:35:52.392Z,56.00
2018-08-19T02:38:21.368Z,48.10
2018-08-19T02:40:49.583Z,48.10
2018-08-19T02:43:17.851Z,47.70
2018-08-19T02:45:46.816Z,47.20
2018-08-19T02:48:15.083Z,47.20
2018-08-19T02:50:43.328Z,47.30
2018-08-19T02:53:11.589Z,47.80
2018-08-19T02:55:39.789Z,47.10
2018-08-19T02:58:08.025Z,49.10
2018-08-19T03:00:37.002Z,51.30
2018-08-19T03:03:05.262Z,51.40
2018-08-19T03:05:33.508Z,50.50
2018-08-19T03:08:01.752Z,49.00
2018-08-19T03:10:30.766Z,47.40
2018-08-19T03:12:59.013Z,47.50
2018-08-19T03:15:28.037Z,47.70
2018-08-19T03:17:56.247Z,47.70
2018-08-19T03:20:24.458Z,48.70
2018-08-19T03:22:53.456Z,48.60
2018-08-19T03:25:22.429Z,48.40
2018-08-19T03:27:50.655Z,48.40
2018-08-19T03:30:18.864Z,48.30
2018-08-19T03:32:47.128Z,48.80
2018-08-19T03:35:15.385Z,47.90
2018-08-19T03:37:43.588Z,48.20
2018-08-19T03:40:11.870Z,49.50
2018-08-19T03:42:40.123Z,48.70
2018-08-19T03:45:08.375Z,47.50
2018-08-19T03:47:36.621Z,48.40
2018-08-19T03:50:04.843Z,47.50
2018-08-19T03:52:33.058Z,48.70
2018-08-19T03:55:01.282Z,48.80
2018-08-19T03:57:29.489Z,48.20
2018-08-19T03:59:57.707Z,49.00
2018-08-19T04:02:26.724Z,49.10
2018-08-19T04:04:55.763Z,48.60
2018-08-19T04:07:24.005Z,48.50
2018-08-19T04:09:52.251Z,50.40
2018-08-19T04:12:20.468Z,49.50
2018-08-19T04:14:48.688Z,49.50
2018-08-19T04:17:18.443Z,49.60
2018-08-19T04:19:46.642Z,49.60
2018-08-19T04:22:14.895Z,49.20
2018-08-19T04:24:43.089Z,53.40
2018-08-19T04:27:11.350Z,49.70
2018-08-19T04:29:39.556Z,48.90
2018-08-19T04:32:07.787Z,54.40
2018-08-19T04:34:35.996Z,54.40
2018-08-19T04:37:04.259Z,50.60
2018-08-19T04:39:32.477Z,50.00
2018-08-19T04:42:00.757Z,49.60
2018-08-19T04:44:29.004Z,50.80
2018-08-19T04:46:57.204Z,50.20
2018-08-19T04:49:25.429Z,49.70
2018-08-19T04:51:53.676Z,58.80
2018-08-19T04:54:21.934Z,50.10
2018-08-19T04:56:50.139Z,50.10
2018-08-19T04:59:19.220Z,49.40
2018-08-19T05:01:47.452Z,49.40
2018-08-19T05:04:15.704Z,48.90
2018-08-19T05:06:44.685Z,49.00
2018-08-19T05:09:13.713Z,48.80
2018-08-19T05:11:41.914Z,48.90
2018-08-19T05:14:10.139Z,49.70
2018-08-19T05:16:38.350Z,49.40
2018-08-19T05:19:06.628Z,49.30
2018-08-19T05:21:34.827Z,50.90
2018-08-19T05:24:04.584Z,51.30
2018-08-19T05:26:32.808Z,51.30
2018-08-19T05:29:01.060Z,49.70
2018-08-19T05:31:29.348Z,49.70
2018-08-19T05:33:57.579Z,49.70
2018-08-19T05:36:26.608Z,52.60
2018-08-19T05:38:54.808Z,52.20
2018-08-19T05:41:23.042Z,49.90
2018-08-19T05:43:51.250Z,49.90
2018-08-19T05:46:20.282Z,53.70
2018-08-19T05:48:48.528Z,53.80
2018-08-19T05:51:16.779Z,51.50
2018-08-19T05:53:45.020Z,51.80
2018-08-19T05:56:13.278Z,53.30
2018-08-19T05:58:41.519Z,53.30
2018-08-19T06:01:09.787Z,50.90
2018-08-19T06:03:37.986Z,54.20
2018-08-19T06:06:06.254Z,49.80
2018-08-19T06:08:34.462Z,49.60
2018-08-19T06:11:02.672Z,49.90
2018-08-19T06:13:30.888Z,50.30
2018-08-19T06:15:59.257Z,50.50
2018-08-19T06:18:27.425Z,50.00
2018-08-19T06:20:55.674Z,50.00
2018-08-19T06:23:24.651Z,50.10
2018-08-19T06:25:53.661Z,51.40
2018-08-19T06:28:21.931Z,51.40
2018-08-19T06:30:50.951Z,49.70
2018-08-19T06:33:19.181Z,49.70
2018-08-19T06:35:47.389Z,51.60
2018-08-19T06:38:15.633Z,50.50
2018-08-19T06:40:43.901Z,50.50
2018-08-19T06:43:13.126Z,50.00
2018-08-19T06:45:42.009Z,49.90
2018-08-19T06:48:10.273Z,49.90
2018-08-19T06:50:38.537Z,50.10
2018-08-19T06:53:06.799Z,50.20
2018-08-19T06:55:35.005Z,50.20
2018-08-19T06:58:03.261Z,50.30
2018-08-19T07:00:31.507Z,50.40
2018-08-19T07:03:00.520Z,51.30
2018-08-19T07:05:28.730Z,51.50
2018-08-19T07:07:56.992Z,51.80
2018-08-19T07:10:25.631Z,50.50
2018-08-19T07:12:54.634Z,50.20
2018-08-19T07:15:22.914Z,50.10
2018-08-19T07:17:51.909Z,50.20
2018-08-19T07:20:20.128Z,50.10
2018-08-19T07:22:48.356Z,53.20
2018-08-19T07:25:16.618Z,52.50
2018-08-19T07:27:45.652Z,50.60
2018-08-19T07:30:13.846Z,50.70
2018-08-19T07:32:42.097Z,50.40
2018-08-19T07:35:10.333Z,50.70
2018-08-19T07:37:39.365Z,50.70
2018-08-19T07:40:07.602Z,50.70
2018-08-19T07:42:35.811Z,50.30
2018-08-19T07:45:04.049Z,53.40
2018-08-19T07:47:33.038Z,50.60
2018-08-19T07:50:01.273Z,50.60
2018-08-19T07:52:29.611Z,51.20
2018-08-19T07:54:57.837Z,50.90
2018-08-19T07:57:26.048Z,50.30
2018-08-19T07:59:55.077Z,51.90
2018-08-19T08:02:23.358Z,51.70
2018-08-19T08:04:51.612Z,50.30
2018-08-19T08:07:20.614Z,51.90
2018-08-19T08:09:48.821Z,52.00
2018-08-19T08:12:17.042Z,50.40
2018-08-19T08:14:46.078Z,50.20
2018-08-19T08:17:14.330Z,50.20
2018-08-19T08:19:43.378Z,50.60
2018-08-19T08:22:11.586Z,50.60
2018-08-19T08:24:40.576Z,51.30
2018-08-19T08:27:09.605Z,50.60
2018-08-19T08:29:37.834Z,50.60
2018-08-19T08:32:06.152Z,50.60
2018-08-19T08:34:34.408Z,52.00
2018-08-19T08:37:03.395Z,53.10
2018-08-19T08:39:31.673Z,53.10
2018-08-19T08:42:00.664Z,50.70
2018-08-19T08:44:28.944Z,50.70
2018-08-19T08:46:57.138Z,51.50
2018-08-19T08:49:26.152Z,50.50
2018-08-19T08:51:54.375Z,50.60
2018-08-19T08:54:22.601Z,50.50
2018-08-19T08:56:50.869Z,50.40
2018-08-19T08:59:19.880Z,50.40
2018-08-19T09:01:48.166Z,50.40
2018-08-19T09:04:16.415Z,50.20
2018-08-19T09:06:45.404Z,50.00
2018-08-19T09:09:13.667Z,50.00
2018-08-19T09:11:42.781Z,49.60
2018-08-19T09:14:11.794Z,49.50
2018-08-19T09:16:40.056Z,49.50
2018-08-19T09:19:08.316Z,49.40
2018-08-19T09:21:37.354Z,46.60
2018-08-19T09:24:05.589Z,46.60
2018-08-19T09:26:34.567Z,48.80
2018-08-19T09:29:02.833Z,48.80
2018-08-19T09:31:31.099Z,48.60
2018-08-19T09:33:59.338Z,48.60
2018-08-19T09:36:27.557Z,47.40
2018-08-19T09:38:55.804Z,47.70
2018-08-19T09:41:24.064Z,47.60
2018-08-19T09:43:52.326Z,47.80
2018-08-19T09:46:21.335Z,48.20
2018-08-19T09:48:49.609Z,48.20
2018-08-19T09:51:18.595Z,48.50
2018-08-19T09:53:47.620Z,48.20
2018-08-19T09:56:15.935Z,48.30
2018-08-19T09:58:44.201Z,47.80
2018-08-19T10:01:12.425Z,48.50
2018-08-19T10:03:41.423Z,48.10
2018-08-19T10:06:10.456Z,47.60
2018-08-19T10:08:38.716Z,47.60
2018-08-19T10:11:06.955Z,48.00
2018-08-19T10:13:35.991Z,47.90
2018-08-19T10:16:04.291Z,47.90
2018-08-19T10:18:32.487Z,47.00
2018-08-19T10:21:00.739Z,47.80
2018-08-19T10:23:28.976Z,47.50
2018-08-19T10:25:57.196Z,47.80
2018-08-19T10:28:25.441Z,42.40
2018-08-19T10:30:53.695Z,43.70
2018-08-19T10:33:21.968Z,44.90
2018-08-19T10:35:50.960Z,45.30
2018-08-19T10:38:19.215Z,45.30
2018-08-19T10:40:47.408Z,40.40
2018-08-19T10:43:16.478Z,45.90
2018-08-19T10:45:44.736Z,45.90
2018-08-19T10:48:13.847Z,46.10
2018-08-19T10:50:42.099Z,44.80
2018-08-19T10:53:10.317Z,44.80
2018-08-19T10:55:39.364Z,42.70
2018-08-19T10:58:07.566Z,42.50
2018-08-19T11:00:35.860Z,42.10
2018-08-19T11:03:04.084Z,44.90
2018-08-19T11:05:32.424Z,45.00
2018-08-19T11:08:01.492Z,44.30
2018-08-19T11:10:29.716Z,44.40
2018-08-19T11:12:57.996Z,45.80
2018-08-19T11:15:27.945Z,45.60
2018-08-19T11:17:56.196Z,45.70
2018-08-19T11:20:25.227Z,45.90
2018-08-19T11:22:53.492Z,45.90
2018-08-19T11:25:21.774Z,46.30
2018-08-19T11:27:49.992Z,46.20
2018-08-19T11:30:18.977Z,46.10
2018-08-19T11:32:47.985Z,46.00
2018-08-19T11:35:16.972Z,45.20
2018-08-19T11:37:45.975Z,45.40
2018-08-19T11:40:14.960Z,46.00
2018-08-19T11:42:43.963Z,46.10
2018-08-19T11:45:12.957Z,45.10
2018-08-19T11:47:41.974Z,43.70
2018-08-19T11:50:11.768Z,43.20
2018-08-19T11:52:40.758Z,45.40
2018-08-19T11:55:09.788Z,45.00
2018-08-19T11:57:38.032Z,44.90
2018-08-19T12:00:07.049Z,45.00
2018-08-19T12:02:35.328Z,45.00
2018-08-19T12:05:03.533Z,43.20
2018-08-19T12:07:31.848Z,44.40
2018-08-19T12:10:00.102Z,41.60
2018-08-19T12:12:28.388Z,44.20
2018-08-19T12:14:56.657Z,43.70
2018-08-19T12:17:24.886Z,43.70
2018-08-19T12:19:53.171Z,44.10
2018-08-19T12:22:21.423Z,43.90
2018-08-19T12:24:50.471Z,42.80
2018-08-19T12:27:18.740Z,42.90
2018-08-19T12:29:47.723Z,45.00
2018-08-19T12:32:15.974Z,44.30
2018-08-19T12:34:44.219Z,43.70
2018-08-19T12:37:12.594Z,43.50
2018-08-19T12:39:40.696Z,44.10
2018-08-19T12:42:09.748Z,44.00
2018-08-19T12:44:38.055Z,44.00
2018-08-19T12:47:06.224Z,44.20
2018-08-19T12:49:34.481Z,44.30
2018-08-19T12:52:02.827Z,43.90
2018-08-19T12:54:31.099Z,43.10
2018-08-19T12:56:59.409Z,42.20
2018-08-19T12:59:28.247Z,41.90
2018-08-19T13:01:57.277Z,40.60
2018-08-19T13:04:25.541Z,40.50
2018-08-19T13:06:53.750Z,41.60
2018-08-19T13:09:22.021Z,41.60
2018-08-19T13:11:50.234Z,41.60
2018-08-19T13:14:19.217Z,39.90
2018-08-19T13:16:47.496Z,39.90
2018-08-19T13:19:15.696Z,40.90
2018-08-19T13:21:43.966Z,39.50
2018-08-19T13:24:12.962Z,40.80
2018-08-19T13:26:41.185Z,40.80
2018-08-19T13:29:09.435Z,40.80
2018-08-19T13:31:37.649Z,40.20
2018-08-19T13:34:06.000Z,41.50
2018-08-19T13:36:34.182Z,41.70
2018-08-19T13:39:02.484Z,41.50
2018-08-19T13:41:30.748Z,41.40
2018-08-19T13:43:58.962Z,41.10
2018-08-19T13:46:27.207Z,41.40
2018-08-19T13:48:55.412Z,42.00
2018-08-19T13:51:24.454Z,41.20
2018-08-19T13:53:52.672Z,41.10
2018-08-19T13:56:20.912Z,40.60
2018-08-19T13:58:49.123Z,41.30
2018-08-19T14:01:17.465Z,41.20
2018-08-19T14:03:45.684Z,42.20
2018-08-19T14:06:13.963Z,41.50
2018-08-19T14:08:42.254Z,41.90
2018-08-19T14:11:11.267Z,40.00
2018-08-19T14:13:39.554Z,40.00
2018-08-19T14:16:07.770Z,39.90
2018-08-19T14:18:36.010Z,39.30
2018-08-19T14:21:04.279Z,40.40
2018-08-19T14:23:32.547Z,39.50
2018-08-19T14:26:01.513Z,39.30
2018-08-19T14:28:30.586Z,39.30
2018-08-19T14:30:58.838Z,39.20
2018-08-19T14:33:27.045Z,39.70
2018-08-19T14:35:55.341Z,39.80
2018-08-19T14:38:23.606Z,39.80
2018-08-19T14:40:51.865Z,37.60
2018-08-19T14:43:20.063Z,35.00
2018-08-19T14:45:48.315Z,37.20
2018-08-19T14:48:16.589Z,35.50
2018-08-19T14:50:44.830Z,36.80
2018-08-19T14:53:13.043Z,38.50
2018-08-19T14:55:41.268Z,38.00
2018-08-19T14:58:10.256Z,32.70
2018-08-19T15:00:39.271Z,35.30
2018-08-19T15:03:07.575Z,35.30
2018-08-19T15:05:35.811Z,36.70
2018-08-19T15:08:04.847Z,36.40
2018-08-19T15:10:33.047Z,36.30
2018-08-19T15:13:01.287Z,36.60
2018-08-19T15:15:29.503Z,36.50
2018-08-19T15:17:57.771Z,36.40
2018-08-19T15:20:26.035Z,36.70
2018-08-19T15:22:54.239Z,36.90
2018-08-19T15:25:22.490Z,37.30
2018-08-19T15:27:50.682Z,37.50
2018-08-19T15:30:18.995Z,35.70
2018-08-19T15:32:48.331Z,34.50
2018-08-19T15:35:16.247Z,34.60
2018-08-19T15:37:45.217Z,36.10
2018-08-19T15:40:13.475Z,36.00
2018-08-19T15:42:41.739Z,35.70
2018-08-19T15:45:09.941Z,35.40
2018-08-19T15:47:39.123Z,35.40
2018-08-19T15:50:10.212Z,36.10
2018-08-19T15:52:38.468Z,36.50
2018-08-19T15:55:06.726Z,36.20
2018-08-19T15:57:34.959Z,35.80
2018-08-19T16:00:03.180Z,36.00
2018-08-19T16:02:31.420Z,36.00
2018-08-19T16:04:59.635Z,35.90
2018-08-19T16:07:27.897Z,35.40
2018-08-19T16:09:56.186Z,35.90
2018-08-19T16:12:24.474Z,36.10
2018-08-19T16:14:53.467Z,33.00
2018-08-19T16:17:21.717Z,32.80
2018-08-19T16:19:49.980Z,36.00
2018-08-19T16:22:18.237Z,36.10
2018-08-19T16:24:46.455Z,35.60
2018-08-19T16:27:14.685Z,35.80
2018-08-19T16:29:43.665Z,34.40
2018-08-19T16:32:11.910Z,34.90
2018-08-19T16:34:40.108Z,33.00
2018-08-19T16:37:08.374Z,35.70
2018-08-19T16:39:36.626Z,35.60
2018-08-19T16:42:04.846Z,35.40
2018-08-19T16:44:33.126Z,35.00
2018-08-19T16:47:01.365Z,33.90
2018-08-19T16:49:29.612Z,33.10
2018-08-19T16:51:57.825Z,34.30
2018-08-19T16:54:26.060Z,34.60
2018-08-19T16:56:54.352Z,34.20
2018-08-19T16:59:23.344Z,34.80
2018-08-19T17:01:51.608Z,34.80
2018-08-19T17:04:20.626Z,33.50
2018-08-19T17:06:48.896Z,33.60
2018-08-19T17:09:17.149Z,34.70
2018-08-19T17:11:46.135Z,34.90
2018-08-19T17:14:15.161Z,34.00
2018-08-19T17:16:43.391Z,34.00
2018-08-19T17:19:11.624Z,34.00
2018-08-19T17:21:39.872Z,34.40
2018-08-19T17:24:08.932Z,34.90
2018-08-19T17:26:37.185Z,34.50
2018-08-19T17:29:05.430Z,34.30
2018-08-19T17:31:33.697Z,34.80
2018-08-19T17:34:02.705Z,34.70
2018-08-19T17:36:30.968Z,34.70
2018-08-19T17:39:00.057Z,35.20
2018-08-19T17:41:28.301Z,35.20
2018-08-19T17:43:56.555Z,35.10
2018-08-19T17:46:24.759Z,33.90
2018-08-19T17:48:52.995Z,34.80
2018-08-19T17:51:28.002Z,34.70
2018-08-19T17:53:57.027Z,35.20
2018-08-19T17:56:25.236Z,35.20
2018-08-19T17:58:53.482Z,35.30
2018-08-19T18:01:21.682Z,35.30
2018-08-19T18:03:49.911Z,35.30
2018-08-19T18:06:18.195Z,35.20
2018-08-19T18:08:46.443Z,35.30
2018-08-19T18:11:14.640Z,35.40
2018-08-19T18:13:42.917Z,35.30
2018-08-19T18:16:11.159Z,35.40
2018-08-19T18:18:39.380Z,35.40
2018-08-19T18:21:07.595Z,35.30
2018-08-19T18:23:35.858Z,34.70
2018-08-19T18:26:04.092Z,35.40
2018-08-19T18:28:32.306Z,35.60
2018-08-19T18:31:00.643Z,35.60
2018-08-19T18:33:28.866Z,35.70
2018-08-19T18:35:57.129Z,35.80
2018-08-19T18:38:25.440Z,36.00
2018-08-19T18:40:53.576Z,36.20
2018-08-19T18:43:21.804Z,37.30
2018-08-19T18:45:50.835Z,36.80
2018-08-19T18:48:19.038Z,36.80
2018-08-19T18:50:47.291Z,36.50
2018-08-19T18:53:15.635Z,36.50
2018-08-19T18:55:43.809Z,36.40
2018-08-19T18:58:12.809Z,36.70
2018-08-19T19:00:41.792Z,36.50
2018-08-19T19:03:10.860Z,36.60
2018-08-19T19:05:39.112Z,36.60
2018-08-19T19:08:07.389Z,36.80
2018-08-19T19:10:35.648Z,37.10
2018-08-19T19:13:03.869Z,36.90
2018-08-19T19:15:32.168Z,36.70
2018-08-19T19:18:00.421Z,36.70
2018-08-19T19:20:28.693Z,36.90
2018-08-19T19:22:56.906Z,36.70
2018-08-19T19:25:26.650Z,37.40
2018-08-19T19:27:54.859Z,37.50
2018-08-19T19:30:23.104Z,37.10
2018-08-19T19:32:51.391Z,37.00
2018-08-19T19:35:19.655Z,37.30
2018-08-19T19:37:47.971Z,37.10
2018-08-19T19:40:16.225Z,37.00
2018-08-19T19:42:44.508Z,38.00
2018-08-19T19:45:13.425Z,36.90
2018-08-19T19:47:41.668Z,37.30
2018-08-19T19:50:09.892Z,37.70
2018-08-19T19:52:38.113Z,37.60
2018-08-19T19:55:06.383Z,37.90
2018-08-19T19:57:34.593Z,39.40
2018-08-19T20:00:03.621Z,38.50
2018-08-19T20:02:31.847Z,38.50
2018-08-19T20:05:00.077Z,38.00
2018-08-19T20:07:28.315Z,39.60
2018-08-19T20:09:56.548Z,38.10
2018-08-19T20:12:25.617Z,38.00
2018-08-19T20:14:53.848Z,38.10
2018-08-19T20:17:22.059Z,38.10
2018-08-19T20:19:50.303Z,38.60
2018-08-19T20:22:18.579Z,39.90
2018-08-19T20:24:46.800Z,38.80
2018-08-19T20:27:15.012Z,38.60
2018-08-19T20:29:43.882Z,38.90
2018-08-19T20:32:12.935Z,39.00
2018-08-19T20:34:41.139Z,38.90
2018-08-19T20:37:09.407Z,39.40
2018-08-19T20:39:37.625Z,39.60
2018-08-19T20:42:05.855Z,38.40
2018-08-19T20:44:34.075Z,38.50
2018-08-19T20:47:02.284Z,38.60
2018-08-19T20:49:30.512Z,40.90
2018-08-19T20:51:59.543Z,41.40
2018-08-19T20:54:27.775Z,41.50
2018-08-19T20:56:56.765Z,38.80
2018-08-19T20:59:25.801Z,39.40
2018-08-19T21:01:54.053Z,38.90
2018-08-19T21:04:23.064Z,39.60
2018-08-19T21:06:51.260Z,39.60
2018-08-19T21:09:19.517Z,39.50
2018-08-19T21:11:47.795Z,43.80
2018-08-19T21:14:16.089Z,40.40
2018-08-19T21:16:44.369Z,43.20
2018-08-19T21:19:12.564Z,39.50
2018-08-19T21:21:40.828Z,39.70
2018-08-19T21:24:09.058Z,39.50
2018-08-19T21:26:38.065Z,39.60
2018-08-19T21:29:06.332Z,39.60
2018-08-19T21:31:35.368Z,39.80
2018-08-19T21:34:03.617Z,39.80
2018-08-19T21:36:31.871Z,39.20
2018-08-19T21:39:00.859Z,39.80
2018-08-19T21:41:29.836Z,40.00
2018-08-19T21:43:58.069Z,40.00
2018-08-19T21:46:26.306Z,40.00
2018-08-19T21:48:55.342Z,39.80
2018-08-19T21:51:23.574Z,39.80
2018-08-19T21:53:51.832Z,39.50
2018-08-19T21:56:20.040Z,39.50
2018-08-19T21:58:48.269Z,42.30
2018-08-19T22:01:16.503Z,40.20
2018-08-19T22:03:48.589Z,39.80
2018-08-19T22:06:16.805Z,39.90
2018-08-19T22:08:45.068Z,39.90
2018-08-19T22:11:13.287Z,39.50
2018-08-19T22:13:42.299Z,39.70
2018-08-19T22:16:10.550Z,39.70
2018-08-19T22:18:39.565Z,39.70
2018-08-19T22:21:07.836Z,39.70
2018-08-19T22:23:36.853Z,39.80
2018-08-19T22:26:05.075Z,39.80
2018-08-19T22:28:33.307Z,39.80
2018-08-19T22:31:01.565Z,39.80
2018-08-19T22:33:30.545Z,39.50
2018-08-19T22:35:59.517Z,39.70
2018-08-19T22:38:27.745Z,39.60
2018-08-19T22:40:55.963Z,39.60
2018-08-19T22:43:24.183Z,39.70
2018-08-19T22:45:52.403Z,40.00
2018-08-19T22:48:20.684Z,41.00
2018-08-19T22:50:48.896Z,40.80
2018-08-19T22:53:17.908Z,39.90
2018-08-19T22:55:46.130Z,39.90
2018-08-19T22:58:14.333Z,40.00
2018-08-19T23:00:43.334Z,39.80
2018-08-19T23:03:12.334Z,39.90
2018-08-19T23:05:41.304Z,40.00
2018-08-19T23:08:09.564Z,40.00
2018-08-19T23:10:37.779Z,41.00
2018-08-19T23:13:06.010Z,40.90
2018-08-19T23:15:36.094Z,40.40
2018-08-19T23:18:04.298Z,41.00
2018-08-19T23:20:32.575Z,41.20
2018-08-19T23:23:01.557Z,41.50
2018-08-19T23:25:29.825Z,41.50
2018-08-19T23:27:58.067Z,42.00
2018-08-19T23:30:27.093Z,41.40
2018-08-19T23:32:55.340Z,41.30
2018-08-19T23:35:24.355Z,40.90
2018-08-19T23:37:52.576Z,40.90
2018-08-19T23:40:20.846Z,41.20
2018-08-19T23:42:49.056Z,42.50
2018-08-19T23:45:18.037Z,43.70
2018-08-19T23:47:46.303Z,43.70
2018-08-19T23:50:14.508Z,45.00
2018-08-19T23:52:43.547Z,41.60
2018-08-19T23:55:11.790Z,41.40
2018-08-19T23:57:40.799Z,42.50
